Ashcamp, Kentucky
Current Conditions -  °F | °C
As of 9:55 PM on Thursday 27 Nov 2014 (Local Time) from KLNP Reporting Station
Light Snow Light Snow  
Wind Chill: 19°   Ceiling: 1600
Heat Index: 27°   Visibility: 10mi
Dew Point: 25°   Wind: 7mph
Humidity: 93%   Direction: 270°W
Pressure: 30.28"   Gusts: NA
Location:  37.27°N, 82.43°W
Report Text: KLNP 280255Z AUTO 27006KT 10SM -SN BKN016 OVC022 M03/M04 A3028 RMK AO2
Loading
Personal Weather Stations






























Interactive Weather Map New forecast layout! Learn more

10-Day Weather Forecast

Advertisements
Track Severe Weather on mobile